createdAt,value
2019-05-10T00:00:52.117Z,91.60
2019-05-10T00:03:38.435Z,91.60
2019-05-10T00:06:24.783Z,91.60
2019-05-10T00:08:52.543Z,91.60
2019-05-10T00:11:24.171Z,91.50
2019-05-10T00:14:10.460Z,91.60
2019-05-10T00:16:39.083Z,91.60
2019-05-10T00:19:07.690Z,91.60
2019-05-10T00:21:36.159Z,91.60
2019-05-10T00:24:04.753Z,91.70
2019-05-10T00:26:33.251Z,91.70
2019-05-10T00:29:01.743Z,91.70
2019-05-10T00:31:30.316Z,91.70
2019-05-10T00:33:58.764Z,91.80
2019-05-10T00:36:27.228Z,91.80
2019-05-10T00:38:55.704Z,91.90
2019-05-10T00:41:24.172Z,91.80
2019-05-10T00:43:52.677Z,91.90
2019-05-10T00:46:21.125Z,91.90
2019-05-10T00:48:49.560Z,91.90
2019-05-10T00:51:18.078Z,91.90
2019-05-10T00:53:46.520Z,91.90
2019-05-10T00:56:14.966Z,91.90
2019-05-10T00:58:43.414Z,92.00
2019-05-10T01:01:11.935Z,92.30
2019-05-10T01:03:40.392Z,92.00
2019-05-10T01:06:08.846Z,92.00
2019-05-10T01:08:37.368Z,92.00
2019-05-10T01:11:05.794Z,92.00
2019-05-10T01:13:34.283Z,92.00
2019-05-10T01:16:02.910Z,92.00
2019-05-10T01:18:31.364Z,92.00
2019-05-10T01:20:59.813Z,92.10
2019-05-10T01:23:28.246Z,92.00
2019-05-10T01:25:56.705Z,92.10
2019-05-10T01:28:25.136Z,92.10
2019-05-10T01:30:53.568Z,92.00
2019-05-10T01:33:22.018Z,92.10
2019-05-10T01:35:50.462Z,92.10
2019-05-10T01:38:18.971Z,92.10
2019-05-10T01:40:47.415Z,92.10
2019-05-10T01:43:15.874Z,92.10
2019-05-10T01:45:47.406Z,92.10
2019-05-10T01:48:15.876Z,92.10
2019-05-10T01:50:44.703Z,92.10
2019-05-10T01:53:13.175Z,92.20
2019-05-10T01:55:51.399Z,92.20
2019-05-10T01:58:11.859Z,92.20
2019-05-10T02:00:40.302Z,92.20
2019-05-10T02:03:08.751Z,92.20
2019-05-10T02:05:37.194Z,92.30
2019-05-10T02:08:05.631Z,92.30
2019-05-10T02:10:34.093Z,92.30
2019-05-10T02:13:03.511Z,92.30
2019-05-10T02:15:33.934Z,92.30
2019-05-10T02:18:02.381Z,92.40
2019-05-10T02:20:30.844Z,92.40
2019-05-10T02:22:59.300Z,92.40
2019-05-10T02:25:27.734Z,92.50
2019-05-10T02:27:56.177Z,92.40
2019-05-10T02:30:24.616Z,92.40
2019-05-10T02:32:54.033Z,92.30
2019-05-10T02:35:22.555Z,92.30
2019-05-10T02:37:52.737Z,92.30
2019-05-10T02:40:21.300Z,92.30
2019-05-10T02:42:49.751Z,92.20
2019-05-10T02:45:18.645Z,92.30
2019-05-10T02:47:47.121Z,92.30
2019-05-10T02:50:15.685Z,92.30
2019-05-10T02:52:44.181Z,92.30
2019-05-10T02:55:12.808Z,92.30
2019-05-10T02:57:41.716Z,92.40
2019-05-10T03:00:10.761Z,92.40
2019-05-10T03:02:40.470Z,92.40
2019-05-10T03:05:09.147Z,92.40
2019-05-10T03:07:38.348Z,92.50
2019-05-10T03:10:09.551Z,92.40
2019-05-10T03:12:40.457Z,92.40
2019-05-10T03:15:11.111Z,92.80
2019-05-10T03:17:40.816Z,92.40
2019-05-10T03:20:09.990Z,92.40
2019-05-10T03:22:41.135Z,92.50
2019-05-10T03:25:09.735Z,92.50
2019-05-10T03:27:38.615Z,92.50
2019-05-10T03:30:07.935Z,92.60
2019-05-10T03:32:36.448Z,92.60
2019-05-10T03:35:06.952Z,92.60
2019-05-10T03:37:35.670Z,92.60
2019-05-10T03:40:07.073Z,92.70
2019-05-10T03:42:35.827Z,92.70
2019-05-10T03:45:07.115Z,92.70
2019-05-10T03:47:35.556Z,92.70
2019-05-10T03:50:06.338Z,92.80
2019-05-10T03:52:34.805Z,92.80
2019-05-10T03:55:03.300Z,92.80
2019-05-10T03:57:31.758Z,92.70
2019-05-10T04:00:00.272Z,92.80
2019-05-10T04:02:28.714Z,92.70
2019-05-10T04:04:57.179Z,92.80
2019-05-10T04:07:25.619Z,92.90
2019-05-10T04:09:54.070Z,92.90
2019-05-10T04:12:22.514Z,92.90
2019-05-10T04:14:50.993Z,93.00
2019-05-10T04:17:19.499Z,93.00
2019-05-10T04:19:47.959Z,93.00
2019-05-10T04:22:16.486Z,93.00
2019-05-10T04:24:44.933Z,93.00
2019-05-10T04:27:30.604Z,93.00
2019-05-10T04:29:45.068Z,93.00
2019-05-10T04:32:13.521Z,93.00
2019-05-10T04:34:41.967Z,93.00
2019-05-10T04:37:11.464Z,93.00
2019-05-10T04:39:41.295Z,93.00
2019-05-10T04:42:09.806Z,93.00
2019-05-10T04:44:38.292Z,93.00
2019-05-10T04:47:09.677Z,93.10
2019-05-10T04:49:38.125Z,93.10
2019-05-10T04:52:06.579Z,93.00
2019-05-10T04:54:35.026Z,93.00
2019-05-10T04:57:03.470Z,93.00
2019-05-10T04:59:31.992Z,93.00
2019-05-10T05:02:01.235Z,93.10
2019-05-10T05:04:29.706Z,93.10
2019-05-10T05:06:58.151Z,92.80
2019-05-10T05:09:26.586Z,92.70
2019-05-10T05:11:56.954Z,92.80
2019-05-10T05:14:25.382Z,92.70
2019-05-10T05:16:53.843Z,92.90
2019-05-10T05:19:22.361Z,92.80
2019-05-10T05:21:50.875Z,92.90
2019-05-10T05:24:23.184Z,92.70
2019-05-10T05:26:49.470Z,92.80
2019-05-10T05:29:17.939Z,92.70
2019-05-10T05:31:46.355Z,92.70
2019-05-10T05:34:14.815Z,92.80
2019-05-10T05:36:43.340Z,92.70
2019-05-10T05:39:11.772Z,92.70
2019-05-10T05:41:49.256Z,92.70
2019-05-10T05:44:13.424Z,92.80
2019-05-10T05:46:41.881Z,92.80
2019-05-10T05:49:10.311Z,92.80
2019-05-10T05:51:38.763Z,92.80
2019-05-10T05:54:08.567Z,92.70
2019-05-10T05:56:37.123Z,92.70
2019-05-10T05:59:08.603Z,92.70
2019-05-10T06:01:35.799Z,92.70
2019-05-10T06:04:06.507Z,92.60
2019-05-10T06:06:34.398Z,92.60
2019-05-10T06:09:04.504Z,92.60
2019-05-10T06:11:35.744Z,92.60
2019-05-10T06:14:10.613Z,92.40
2019-05-10T06:16:37.275Z,92.40
2019-05-10T06:19:08.847Z,92.40
2019-05-10T06:21:37.298Z,92.30
2019-05-10T06:24:07.355Z,92.20
2019-05-10T06:26:35.904Z,92.30
2019-05-10T06:29:10.036Z,92.30
2019-05-10T06:31:34.524Z,92.30
2019-05-10T06:34:02.970Z,92.40
2019-05-10T06:36:31.945Z,92.30
2019-05-10T06:39:00.473Z,92.20
2019-05-10T06:41:32.396Z,91.90
2019-05-10T06:43:59.141Z,92.00
2019-05-10T06:46:29.810Z,91.90
2019-05-10T06:49:07.042Z,92.10
2019-05-10T06:51:27.970Z,91.80
2019-05-10T06:53:56.410Z,91.90
2019-05-10T06:56:24.863Z,91.70
2019-05-10T06:58:53.382Z,91.70
2019-05-10T07:01:21.827Z,91.70
2019-05-10T07:03:50.284Z,92.30
2019-05-10T07:06:18.796Z,91.80
2019-05-10T07:08:51.959Z,91.30
2019-05-10T07:11:17.507Z,91.20
2019-05-10T07:13:47.194Z,91.20
2019-05-10T07:16:23.741Z,91.30
2019-05-10T07:18:46.267Z,91.00
2019-05-10T07:21:14.711Z,91.10
2019-05-10T07:23:44.738Z,91.10
2019-05-10T07:26:17.526Z,91.20
2019-05-10T07:28:51.736Z,91.30
2019-05-10T07:31:18.068Z,91.30
2019-05-10T07:33:46.513Z,91.50
2019-05-10T07:36:20.272Z,91.30
2019-05-10T07:38:52.266Z,91.00
2019-05-10T07:41:26.356Z,90.50
2019-05-10T07:43:50.947Z,90.30
2019-05-10T07:46:19.448Z,90.30
2019-05-10T07:48:53.239Z,90.40
2019-05-10T07:51:22.749Z,90.50
2019-05-10T07:53:48.294Z,90.60
2019-05-10T07:56:16.730Z,90.60
2019-05-10T07:58:45.182Z,90.40
2019-05-10T08:01:13.700Z,90.40
2019-05-10T08:03:48.169Z,89.90
2019-05-10T08:06:40.367Z,89.70
2019-05-10T08:09:06.321Z,89.80
2019-05-10T08:11:31.988Z,89.40
2019-05-10T08:14:06.159Z,89.10
2019-05-10T08:16:30.586Z,88.40
2019-05-10T08:19:00.939Z,87.90
2019-05-10T08:21:29.822Z,86.40
2019-05-10T08:24:07.205Z,85.40
2019-05-10T08:26:29.522Z,85.30
2019-05-10T08:29:01.968Z,84.90
2019-05-10T08:31:33.098Z,85.40
2019-05-10T08:34:02.096Z,85.70
2019-05-10T08:36:32.102Z,86.00
2019-05-10T08:39:07.730Z,84.70
2019-05-10T08:41:32.559Z,85.00
2019-05-10T08:44:04.586Z,84.80
2019-05-10T08:46:40.161Z,84.70
2019-05-10T08:49:02.100Z,85.30
2019-05-10T08:51:32.556Z,85.30
2019-05-10T08:54:01.754Z,83.70
2019-05-10T08:56:33.074Z,83.80
2019-05-10T08:59:03.680Z,83.40
2019-05-10T09:01:38.414Z,83.20
2019-05-10T09:04:06.605Z,83.40
2019-05-10T09:06:32.778Z,82.70
2019-05-10T09:09:03.158Z,83.00
2019-05-10T09:11:32.739Z,82.30
2019-05-10T09:14:03.193Z,81.80
2019-05-10T09:16:39.465Z,80.60
2019-05-10T09:19:02.668Z,79.00
2019-05-10T09:21:32.206Z,79.60
2019-05-10T09:24:04.948Z,78.90
2019-05-10T09:26:32.227Z,78.90
2019-05-10T09:29:01.714Z,79.20
2019-05-10T09:31:32.531Z,78.90
2019-05-10T09:34:02.405Z,78.20
2019-05-10T09:36:33.478Z,78.80
2019-05-10T09:39:03.231Z,75.00
2019-05-10T09:41:52.707Z,72.10
2019-05-10T09:44:22.881Z,69.30
2019-05-10T09:46:52.481Z,66.50
2019-05-10T09:49:23.199Z,68.20
2019-05-10T09:51:52.694Z,68.40
2019-05-10T09:54:23.142Z,67.00
2019-05-10T09:56:52.419Z,67.80
2019-05-10T09:59:21.007Z,64.50
2019-05-10T10:01:49.500Z,65.50
2019-05-10T10:04:20.261Z,63.20
2019-05-10T10:06:52.532Z,62.60
2019-05-10T10:09:18.296Z,61.70
2019-05-10T10:11:57.300Z,60.80
2019-05-10T10:14:17.991Z,61.10
2019-05-10T10:16:57.908Z,61.00
2019-05-10T10:19:18.120Z,61.50
2019-05-10T10:21:47.591Z,61.60
2019-05-10T10:24:20.041Z,62.70
2019-05-10T10:26:48.211Z,61.40
2019-05-10T10:29:17.261Z,62.30
2019-05-10T10:31:54.716Z,62.70
2019-05-10T10:34:17.362Z,63.50
2019-05-10T10:36:47.536Z,63.10
2019-05-10T10:39:17.052Z,61.40
2019-05-10T10:41:48.060Z,59.80
2019-05-10T10:44:18.142Z,59.60
2019-05-10T10:46:47.981Z,59.00
2019-05-10T10:49:17.774Z,58.20
2019-05-10T10:51:47.665Z,57.80
2019-05-10T10:54:17.664Z,56.50
2019-05-10T10:56:48.205Z,57.10
2019-05-10T10:59:18.319Z,57.00
2019-05-10T11:01:50.557Z,57.70
2019-05-10T11:04:17.227Z,57.40
2019-05-10T11:06:45.673Z,58.10
2019-05-10T11:09:14.188Z,58.40
2019-05-10T11:11:44.717Z,58.50
2019-05-10T11:14:12.810Z,58.10
2019-05-10T11:16:41.486Z,58.60
2019-05-10T11:19:15.305Z,57.70
2019-05-10T11:21:41.544Z,57.70
2019-05-10T11:24:17.749Z,58.50
2019-05-10T11:26:41.748Z,57.80
2019-05-10T11:29:13.951Z,58.40
2019-05-10T11:31:43.412Z,57.10
2019-05-10T11:34:11.843Z,57.30
2019-05-10T11:36:45.269Z,57.20
2019-05-10T11:39:23.236Z,56.60
2019-05-10T11:41:40.650Z,57.10
2019-05-10T11:44:11.968Z,57.00
2019-05-10T11:46:41.495Z,56.90
2019-05-10T11:49:10.625Z,56.50
2019-05-10T11:51:41.344Z,56.50
2019-05-10T11:54:11.141Z,54.80
2019-05-10T11:56:41.068Z,54.20
2019-05-10T11:59:15.830Z,54.10
2019-05-10T12:01:41.743Z,53.90
2019-05-10T12:04:13.148Z,53.70
2019-05-10T12:06:41.275Z,54.50
2019-05-10T12:09:12.536Z,54.70
2019-05-10T12:11:51.507Z,53.60
2019-05-10T12:14:13.892Z,53.00
2019-05-10T12:16:42.078Z,52.40
2019-05-10T12:19:20.593Z,52.00
2019-05-10T12:21:40.965Z,52.00
2019-05-10T12:24:26.039Z,52.30
2019-05-10T12:29:13.550Z,52.20
2019-05-10T12:31:41.512Z,51.70
2019-05-10T12:34:14.261Z,51.20
2019-05-10T12:36:41.183Z,49.30
2019-05-10T12:39:11.636Z,50.70
2019-05-10T12:41:47.711Z,51.10
2019-05-10T12:44:11.226Z,49.00
2019-05-10T12:46:42.172Z,48.70
2019-05-10T12:49:11.962Z,48.30
2019-05-10T12:51:42.806Z,48.20
2019-05-10T12:54:11.359Z,48.30
2019-05-10T12:56:44.050Z,48.10
2019-05-10T12:59:10.138Z,47.90
2019-05-10T13:01:38.586Z,47.60
2019-05-10T13:04:14.542Z,45.40
2019-05-10T13:06:38.730Z,46.00
2019-05-10T13:09:07.629Z,45.40
2019-05-10T13:11:36.139Z,44.40
2019-05-10T13:14:07.498Z,45.70
2019-05-10T13:16:34.823Z,45.10
2019-05-10T13:19:03.269Z,44.30
2019-05-10T13:21:31.712Z,44.00
2019-05-10T13:24:00.171Z,45.50
2019-05-10T13:26:28.608Z,45.80
2019-05-10T13:29:02.060Z,45.30
2019-05-10T13:31:27.229Z,45.10
2019-05-10T13:33:55.696Z,44.20
2019-05-10T13:36:24.149Z,44.90
2019-05-10T13:38:52.585Z,43.70
2019-05-10T13:41:24.463Z,44.20
2019-05-10T13:43:51.205Z,44.40
2019-05-10T13:46:19.666Z,44.50
2019-05-10T13:48:48.120Z,45.70
2019-05-10T13:51:16.556Z,45.90
2019-05-10T13:53:45.005Z,45.70
2019-05-10T13:56:13.441Z,45.20
2019-05-10T13:58:41.886Z,45.60
2019-05-10T14:01:13.148Z,46.20
2019-05-10T14:03:44.411Z,46.50
2019-05-10T14:06:11.636Z,46.40
2019-05-10T14:08:42.797Z,44.70
2019-05-10T14:11:12.989Z,45.40
2019-05-10T14:13:43.186Z,46.00
2019-05-10T14:16:18.085Z,45.00
2019-05-10T14:18:42.015Z,45.00
2019-05-10T14:21:10.469Z,46.00
2019-05-10T14:23:38.984Z,45.70
2019-05-10T14:26:09.417Z,46.10
2019-05-10T14:28:37.595Z,46.60
2019-05-10T14:31:06.227Z,46.90
2019-05-10T14:33:34.656Z,46.30
2019-05-10T14:36:03.530Z,47.10
2019-05-10T14:38:35.072Z,47.00
2019-05-10T14:41:11.051Z,47.50
2019-05-10T14:43:34.725Z,47.70
2019-05-10T14:46:03.306Z,48.10
2019-05-10T14:48:35.266Z,48.40
2019-05-10T14:51:09.859Z,49.30
2019-05-10T14:53:32.990Z,50.50
2019-05-10T14:56:07.509Z,51.60
2019-05-10T14:58:34.559Z,52.70
2019-05-10T15:01:04.789Z,53.80
2019-05-10T15:03:44.922Z,53.50
2019-05-10T15:06:07.806Z,53.90
2019-05-10T15:08:36.409Z,53.90
2019-05-10T15:11:08.948Z,54.80
2019-05-10T15:13:37.219Z,53.70
2019-05-10T15:16:13.147Z,53.00
2019-05-10T15:18:42.111Z,53.00
2019-05-10T15:21:12.092Z,52.80
2019-05-10T15:23:55.365Z,53.30
2019-05-10T15:26:20.687Z,53.50
2019-05-10T15:28:49.140Z,53.10
2019-05-10T15:31:17.592Z,52.70
2019-05-10T15:33:46.037Z,53.20
2019-05-10T15:36:15.482Z,53.70
2019-05-10T15:38:50.044Z,54.10
2019-05-10T15:41:16.973Z,54.70
2019-05-10T15:43:48.823Z,54.70
2019-05-10T15:46:15.712Z,54.70
2019-05-10T15:48:45.420Z,55.00
2019-05-10T15:51:16.904Z,55.20
2019-05-10T15:53:45.741Z,55.40
2019-05-10T15:56:14.859Z,56.50
2019-05-10T15:58:45.076Z,56.00
2019-05-10T16:01:14.395Z,56.20
2019-05-10T16:03:43.180Z,56.30
2019-05-10T16:06:11.620Z,55.90
2019-05-10T16:08:40.072Z,55.90
2019-05-10T16:11:18.076Z,56.50
2019-05-10T16:13:38.692Z,56.50
2019-05-10T16:16:07.143Z,57.30
2019-05-10T16:18:39.770Z,56.60
2019-05-10T16:21:17.748Z,56.90
2019-05-10T16:23:49.220Z,56.40
2019-05-10T16:26:22.717Z,56.70
2019-05-10T16:28:52.530Z,56.80
2019-05-10T16:31:18.012Z,56.50
2019-05-10T16:33:48.228Z,56.00
2019-05-10T16:36:16.626Z,56.00
2019-05-10T16:38:45.064Z,56.40
2019-05-10T16:41:13.518Z,56.30
2019-05-10T16:43:41.972Z,56.40
2019-05-10T16:46:10.418Z,56.40
2019-05-10T16:48:38.933Z,56.30
2019-05-10T16:51:10.210Z,56.30
2019-05-10T16:53:44.007Z,56.20
2019-05-10T16:56:13.224Z,56.20
2019-05-10T16:58:39.583Z,56.20
2019-05-10T17:01:08.024Z,55.60
2019-05-10T17:03:36.469Z,55.80
2019-05-10T17:06:05.753Z,55.90
2019-05-10T17:08:36.581Z,55.30
2019-05-10T17:11:09.356Z,55.40
2019-05-10T17:13:36.517Z,56.10
2019-05-10T17:16:05.014Z,55.80
2019-05-10T17:18:33.518Z,56.20
2019-05-10T17:21:01.983Z,56.80
2019-05-10T17:23:30.411Z,56.80
2019-05-10T17:25:58.872Z,56.90
2019-05-10T17:28:29.626Z,56.90
2019-05-10T17:30:59.996Z,57.70
2019-05-10T17:33:29.376Z,58.30
2019-05-10T17:36:07.982Z,58.20
2019-05-10T17:38:27.988Z,58.80
2019-05-10T17:40:56.439Z,58.40
2019-05-10T17:43:24.891Z,58.50
2019-05-10T17:45:53.347Z,58.70
2019-05-10T17:48:21.878Z,58.70
2019-05-10T17:50:50.332Z,59.30
2019-05-10T17:53:18.771Z,59.70
2019-05-10T17:55:49.321Z,59.70
2019-05-10T17:58:17.457Z,59.70
2019-05-10T18:00:46.574Z,60.00
2019-05-10T18:03:15.040Z,60.40
2019-05-10T18:05:46.883Z,60.80
2019-05-10T18:08:13.713Z,61.50
2019-05-10T18:10:42.227Z,62.20
2019-05-10T18:13:12.399Z,62.40
2019-05-10T18:15:40.856Z,62.70
2019-05-10T18:18:09.308Z,63.10
2019-05-10T18:20:41.886Z,63.40
2019-05-10T18:23:07.941Z,63.60
2019-05-10T18:25:36.464Z,63.30
2019-05-10T18:28:04.911Z,63.80
2019-05-10T18:30:33.355Z,64.30
2019-05-10T18:33:01.785Z,64.80
2019-05-10T18:35:30.232Z,65.20
2019-05-10T18:37:59.650Z,65.60
2019-05-10T18:40:31.775Z,65.90
2019-05-10T18:43:03.904Z,66.10
2019-05-10T18:45:30.103Z,66.30
2019-05-10T18:47:58.644Z,66.70
2019-05-10T18:50:27.120Z,67.10
2019-05-10T18:52:55.643Z,67.30
2019-05-10T18:55:24.084Z,67.80
2019-05-10T18:57:52.702Z,68.00
2019-05-10T19:00:23.152Z,68.40
2019-05-10T19:02:55.207Z,68.40
2019-05-10T19:05:25.350Z,68.60
2019-05-10T19:08:03.097Z,68.90
2019-05-10T19:10:22.313Z,69.10
2019-05-10T19:12:59.869Z,69.30
2019-05-10T19:15:21.025Z,69.40
2019-05-10T19:17:49.484Z,69.40
2019-05-10T19:20:18.522Z,69.80
2019-05-10T19:22:47.056Z,70.20
2019-05-10T19:25:15.587Z,70.20
2019-05-10T19:27:47.774Z,70.40
2019-05-10T19:30:20.110Z,70.70
2019-05-10T19:32:44.652Z,70.80
2019-05-10T19:35:13.343Z,70.60
2019-05-10T19:37:41.780Z,71.50
2019-05-10T19:40:11.067Z,71.00
2019-05-10T19:42:43.527Z,71.20
2019-05-10T19:45:13.051Z,71.00
2019-05-10T19:47:41.459Z,71.20
2019-05-10T19:50:10.137Z,71.50
2019-05-10T19:52:38.580Z,71.80
2019-05-10T19:55:13.121Z,72.00
2019-05-10T19:57:41.776Z,72.30
2019-05-10T20:00:10.473Z,72.30
2019-05-10T20:02:38.936Z,72.50
2019-05-10T20:05:07.700Z,72.70
2019-05-10T20:07:45.354Z,72.60
2019-05-10T20:10:07.694Z,72.80
2019-05-10T20:12:36.785Z,73.20
2019-05-10T20:15:08.511Z,73.40
2019-05-10T20:17:39.624Z,73.60
2019-05-10T20:20:08.491Z,73.60
2019-05-10T20:22:42.739Z,74.10
2019-05-10T20:25:11.254Z,74.40
2019-05-10T20:27:40.008Z,74.60
2019-05-10T20:30:09.047Z,74.80
2019-05-10T20:32:37.499Z,74.90
2019-05-10T20:35:07.584Z,74.80
2019-05-10T20:37:39.084Z,74.90
2019-05-10T20:40:08.059Z,75.10
2019-05-10T20:42:36.507Z,75.30
2019-05-10T20:45:14.455Z,75.50
2019-05-10T20:47:43.481Z,75.70
2019-05-10T20:50:12.092Z,75.80
2019-05-10T20:52:40.548Z,76.40
2019-05-10T20:55:10.872Z,76.40
2019-05-10T20:57:39.308Z,76.40
2019-05-10T21:00:08.401Z,76.80
2019-05-10T21:02:36.836Z,77.00
2019-05-10T21:05:09.236Z,77.10
2019-05-10T21:07:37.689Z,77.20
2019-05-10T21:10:07.627Z,77.40
2019-05-10T21:12:36.095Z,77.40
2019-05-10T21:15:06.377Z,77.70
2019-05-10T21:17:34.823Z,78.00
2019-05-10T21:20:03.447Z,78.70
2019-05-10T21:22:31.949Z,78.30
2019-05-10T21:25:00.395Z,78.50
2019-05-10T21:27:28.836Z,78.70
2019-05-10T21:29:57.304Z,78.90
2019-05-10T21:32:25.815Z,78.80
2019-05-10T21:34:57.383Z,79.00
2019-05-10T21:37:25.827Z,79.70
2019-05-10T21:39:57.405Z,79.00
2019-05-10T21:42:25.924Z,79.20
2019-05-10T21:44:54.364Z,79.10
2019-05-10T21:47:22.871Z,79.50
2019-05-10T21:49:51.341Z,79.50
2019-05-10T21:52:19.778Z,79.80
2019-05-10T21:54:48.199Z,79.90
2019-05-10T21:57:16.641Z,79.90
2019-05-10T21:59:45.088Z,79.90
2019-05-10T22:02:13.534Z,80.10
2019-05-10T22:04:41.992Z,80.30
2019-05-10T22:07:10.432Z,80.40
2019-05-10T22:09:38.877Z,80.60
2019-05-10T22:12:07.684Z,80.70
2019-05-10T22:14:36.133Z,80.90
2019-05-10T22:17:04.610Z,81.00
2019-05-10T22:19:33.052Z,81.20
2019-05-10T22:22:01.500Z,81.20
2019-05-10T22:24:29.931Z,81.40
2019-05-10T22:26:58.391Z,81.50
2019-05-10T22:29:29.678Z,81.60
2019-05-10T22:31:58.164Z,82.00
2019-05-10T22:34:26.584Z,82.20
2019-05-10T22:36:55.037Z,82.80
2019-05-10T22:39:23.488Z,83.00
2019-05-10T22:41:53.209Z,83.30
2019-05-10T22:44:21.815Z,83.40
2019-05-10T22:46:50.248Z,83.70
2019-05-10T22:49:18.695Z,83.80
2019-05-10T22:51:47.151Z,84.00
2019-05-10T22:54:17.628Z,84.10
2019-05-10T22:56:46.061Z,84.20
2019-05-10T22:59:14.498Z,84.40
2019-05-10T23:01:42.958Z,84.50
2019-05-10T23:04:11.526Z,84.70
2019-05-10T23:06:39.988Z,84.80
2019-05-10T23:09:23.537Z,84.80
2019-05-10T23:11:39.175Z,84.90
2019-05-10T23:14:07.617Z,85.00
2019-05-10T23:16:36.056Z,84.80
2019-05-10T23:19:04.563Z,85.00
2019-05-10T23:21:33.017Z,84.90
2019-05-10T23:24:03.088Z,84.90
2019-05-10T23:26:31.535Z,84.90
2019-05-10T23:28:59.978Z,84.90
2019-05-10T23:31:28.433Z,84.80
2019-05-10T23:33:56.875Z,84.80
2019-05-10T23:36:25.328Z,84.60
2019-05-10T23:38:53.832Z,84.80
2019-05-10T23:41:22.271Z,84.80
2019-05-10T23:43:50.711Z,84.80
2019-05-10T23:46:19.160Z,84.80
2019-05-10T23:48:47.599Z,84.70
2019-05-10T23:51:16.047Z,84.60
2019-05-10T23:53:44.482Z,84.70
2019-05-10T23:56:12.916Z,84.70
2019-05-10T23:58:41.366Z,84.80
